sensor_id;sensor_type;location;lat;lon;timestamp;P1;durP1;ratioP1;P2;durP2;ratioP2
50249;SDS011;36133;42.522;27.456;2023-04-01T00:00:47;85.25;;;54.42;;
50249;SDS011;36133;42.522;27.456;2023-04-01T00:03:16;85.22;;;53.47;;
50249;SDS011;36133;42.522;27.456;2023-04-01T00:05:45;84.53;;;53.63;;
50249;SDS011;36133;42.522;27.456;2023-04-01T00:08:11;80.85;;;48.60;;
50249;SDS011;36133;42.522;27.456;2023-04-01T00:10:37;79.90;;;48.58;;
50249;SDS011;36133;42.522;27.456;2023-04-01T00:13:02;69.75;;;43.65;;
50249;SDS011;36133;42.522;27.456;2023-04-01T00:15:28;70.95;;;44.92;;
50249;SDS011;36133;42.522;27.456;2023-04-01T00:17:54;77.93;;;46.85;;
50249;SDS011;36133;42.522;27.456;2023-04-01T00:20:20;117.13;;;64.20;;
50249;SDS011;36133;42.522;27.456;2023-04-01T00:22:46;91.13;;;51.38;;
50249;SDS011;36133;42.522;27.456;2023-04-01T00:25:11;103.05;;;58.47;;
50249;SDS011;36133;42.522;27.456;2023-04-01T00:27:38;81.55;;;48.63;;
50249;SDS011;36133;42.522;27.456;2023-04-01T00:30:03;66.22;;;38.03;;
50249;SDS011;36133;42.522;27.456;2023-04-01T00:32:29;71.63;;;41.95;;
50249;SDS011;36133;42.522;27.456;2023-04-01T00:34:56;92.20;;;54.10;;
50249;SDS011;36133;42.522;27.456;2023-04-01T00:37:24;80.97;;;49.63;;
50249;SDS011;36133;42.522;27.456;2023-04-01T00:39:51;64.38;;;41.40;;
50249;SDS011;36133;42.522;27.456;2023-04-01T00:42:16;61.13;;;37.47;;
50249;SDS011;36133;42.522;27.456;2023-04-01T00:44:44;64.30;;;38.25;;
50249;SDS011;36133;42.522;27.456;2023-04-01T00:47:13;62.58;;;38.67;;
50249;SDS011;36133;42.522;27.456;2023-04-01T00:49:40;61.03;;;39.05;;
50249;SDS011;36133;42.522;27.456;2023-04-01T00:52:10;63.28;;;37.85;;
50249;SDS011;36133;42.522;27.456;2023-04-01T00:54:39;54.88;;;35.10;;
50249;SDS011;36133;42.522;27.456;2023-04-01T00:57:10;51.30;;;34.45;;
50249;SDS011;36133;42.522;27.456;2023-04-01T00:59:41;46.53;;;31.23;;
50249;SDS011;36133;42.522;27.456;2023-04-01T01:02:10;64.63;;;38.33;;
50249;SDS011;36133;42.522;27.456;2023-04-01T01:04:37;70.65;;;41.65;;
50249;SDS011;36133;42.522;27.456;2023-04-01T01:07:20;71.25;;;39.67;;
50249;SDS011;36133;42.522;27.456;2023-04-01T01:15:30;64.05;;;37.00;;
50249;SDS011;36133;42.522;27.456;2023-04-01T01:18:22;63.20;;;38.40;;
50249;SDS011;36133;42.522;27.456;2023-04-01T01:21:09;71.43;;;39.53;;
50249;SDS011;36133;42.522;27.456;2023-04-01T01:35:25;52.97;;;32.38;;
50249;SDS011;36133;42.522;27.456;2023-04-01T01:37:23;39.30;;;26.10;;
50249;SDS011;36133;42.522;27.456;2023-04-01T01:39:54;51.75;;;24.63;;
50249;SDS011;36133;42.522;27.456;2023-04-01T01:42:23;45.45;;;28.10;;
50249;SDS011;36133;42.522;27.456;2023-04-01T01:44:51;53.60;;;32.67;;
50249;SDS011;36133;42.522;27.456;2023-04-01T01:47:18;52.60;;;31.27;;
50249;SDS011;36133;42.522;27.456;2023-04-01T01:49:47;41.53;;;24.33;;
50249;SDS011;36133;42.522;27.456;2023-04-01T01:52:13;50.22;;;26.92;;
50249;SDS011;36133;42.522;27.456;2023-04-01T01:54:55;46.40;;;29.88;;
50249;SDS011;36133;42.522;27.456;2023-04-01T01:57:26;49.58;;;29.75;;
50249;SDS011;36133;42.522;27.456;2023-04-01T01:59:56;54.10;;;32.05;;
50249;SDS011;36133;42.522;27.456;2023-04-01T02:02:26;51.40;;;29.92;;
50249;SDS011;36133;42.522;27.456;2023-04-01T02:04:56;37.92;;;23.45;;
50249;SDS011;36133;42.522;27.456;2023-04-01T02:07:27;38.70;;;24.65;;
50249;SDS011;36133;42.522;27.456;2023-04-01T02:09:57;50.83;;;26.17;;
50249;SDS011;36133;42.522;27.456;2023-04-01T02:12:22;47.47;;;31.05;;
50249;SDS011;36133;42.522;27.456;2023-04-01T02:14:54;49.67;;;30.35;;
50249;SDS011;36133;42.522;27.456;2023-04-01T02:17:26;45.30;;;30.15;;
50249;SDS011;36133;42.522;27.456;2023-04-01T02:22:33;51.83;;;31.25;;
50249;SDS011;36133;42.522;27.456;2023-04-01T02:25:09;55.65;;;34.45;;
50249;SDS011;36133;42.522;27.456;2023-04-01T02:27:40;67.70;;;42.78;;
50249;SDS011;36133;42.522;27.456;2023-04-01T02:30:08;85.68;;;52.90;;
50249;SDS011;36133;42.522;27.456;2023-04-01T02:32:34;69.05;;;39.80;;
50249;SDS011;36133;42.522;27.456;2023-04-01T02:35:04;64.80;;;40.08;;
50249;SDS011;36133;42.522;27.456;2023-04-01T02:37:35;60.20;;;37.42;;
50249;SDS011;36133;42.522;27.456;2023-04-01T02:40:05;60.10;;;38.17;;
50249;SDS011;36133;42.522;27.456;2023-04-01T02:42:32;66.43;;;40.25;;
50249;SDS011;36133;42.522;27.456;2023-04-01T02:44:59;58.42;;;39.58;;
50249;SDS011;36133;42.522;27.456;2023-04-01T02:47:24;60.78;;;39.63;;
50249;SDS011;36133;42.522;27.456;2023-04-01T02:49:50;61.38;;;40.38;;
50249;SDS011;36133;42.522;27.456;2023-04-01T02:52:15;65.38;;;40.08;;
50249;SDS011;36133;42.522;27.456;2023-04-01T02:54:41;60.63;;;40.33;;
50249;SDS011;36133;42.522;27.456;2023-04-01T02:57:06;61.47;;;40.95;;
50249;SDS011;36133;42.522;27.456;2023-04-01T02:59:32;61.03;;;39.25;;
50249;SDS011;36133;42.522;27.456;2023-04-01T03:01:59;63.65;;;39.00;;
50249;SDS011;36133;42.522;27.456;2023-04-01T03:04:24;59.05;;;34.00;;
50249;SDS011;36133;42.522;27.456;2023-04-01T03:06:50;52.47;;;35.88;;
50249;SDS011;36133;42.522;27.456;2023-04-01T03:09:16;58.13;;;35.80;;
50249;SDS011;36133;42.522;27.456;2023-04-01T03:11:42;58.83;;;34.80;;
50249;SDS011;36133;42.522;27.456;2023-04-01T03:14:07;58.58;;;35.75;;
50249;SDS011;36133;42.522;27.456;2023-04-01T03:16:33;64.43;;;37.63;;
50249;SDS011;36133;42.522;27.456;2023-04-01T03:18:58;64.40;;;38.53;;
50249;SDS011;36133;42.522;27.456;2023-04-01T03:21:27;69.45;;;37.83;;
50249;SDS011;36133;42.522;27.456;2023-04-01T03:23:52;61.92;;;38.25;;
50249;SDS011;36133;42.522;27.456;2023-04-01T03:26:18;65.95;;;39.88;;
50249;SDS011;36133;42.522;27.456;2023-04-01T03:28:44;66.70;;;41.58;;
50249;SDS011;36133;42.522;27.456;2023-04-01T03:31:10;67.72;;;41.67;;
50249;SDS011;36133;42.522;27.456;2023-04-01T03:33:35;66.72;;;42.63;;
50249;SDS011;36133;42.522;27.456;2023-04-01T03:36:01;67.90;;;41.83;;
50249;SDS011;36133;42.522;27.456;2023-04-01T03:38:31;59.03;;;37.80;;
50249;SDS011;36133;42.522;27.456;2023-04-01T03:40:58;63.53;;;36.95;;
50249;SDS011;36133;42.522;27.456;2023-04-01T03:43:23;58.25;;;37.03;;
50249;SDS011;36133;42.522;27.456;2023-04-01T03:45:50;78.45;;;42.45;;
50249;SDS011;36133;42.522;27.456;2023-04-01T03:48:18;65.38;;;41.67;;
50249;SDS011;36133;42.522;27.456;2023-04-01T03:50:44;67.50;;;39.85;;
50249;SDS011;36133;42.522;27.456;2023-04-01T03:53:10;67.85;;;41.53;;
50249;SDS011;36133;42.522;27.456;2023-04-01T03:55:36;73.03;;;45.72;;
50249;SDS011;36133;42.522;27.456;2023-04-01T03:58:02;81.75;;;44.22;;
50249;SDS011;36133;42.522;27.456;2023-04-01T04:00:29;80.75;;;46.22;;
50249;SDS011;36133;42.522;27.456;2023-04-01T04:02:55;79.75;;;47.95;;
50249;SDS011;36133;42.522;27.456;2023-04-01T04:05:22;88.25;;;47.05;;
50249;SDS011;36133;42.522;27.456;2023-04-01T04:07:51;85.30;;;47.85;;
50249;SDS011;36133;42.522;27.456;2023-04-01T04:10:17;93.43;;;51.42;;
50249;SDS011;36133;42.522;27.456;2023-04-01T04:12:43;87.20;;;51.13;;
50249;SDS011;36133;42.522;27.456;2023-04-01T04:15:09;90.80;;;52.30;;
50249;SDS011;36133;42.522;27.456;2023-04-01T04:17:35;89.88;;;53.88;;
50249;SDS011;36133;42.522;27.456;2023-04-01T04:20:01;72.57;;;43.78;;
50249;SDS011;36133;42.522;27.456;2023-04-01T04:22:27;80.38;;;43.55;;
50249;SDS011;36133;42.522;27.456;2023-04-01T04:24:52;85.20;;;47.10;;
50249;SDS011;36133;42.522;27.456;2023-04-01T04:27:18;85.50;;;45.53;;
50249;SDS011;36133;42.522;27.456;2023-04-01T04:29:44;74.05;;;41.95;;
50249;SDS011;36133;42.522;27.456;2023-04-01T04:32:10;70.70;;;38.45;;
50249;SDS011;36133;42.522;27.456;2023-04-01T04:34:36;64.95;;;35.83;;
50249;SDS011;36133;42.522;27.456;2023-04-01T04:37:01;67.05;;;35.97;;
50249;SDS011;36133;42.522;27.456;2023-04-01T04:39:27;64.18;;;35.83;;
50249;SDS011;36133;42.522;27.456;2023-04-01T04:41:53;68.45;;;32.53;;
50249;SDS011;36133;42.522;27.456;2023-04-01T04:44:18;53.60;;;30.77;;
50249;SDS011;36133;42.522;27.456;2023-04-01T04:46:44;47.47;;;26.35;;
50249;SDS011;36133;42.522;27.456;2023-04-01T04:49:09;39.60;;;21.63;;
50249;SDS011;36133;42.522;27.456;2023-04-01T04:51:35;27.23;;;14.48;;
50249;SDS011;36133;42.522;27.456;2023-04-01T04:54:02;23.58;;;14.90;;
50249;SDS011;36133;42.522;27.456;2023-04-01T04:56:28;30.75;;;14.75;;
50249;SDS011;36133;42.522;27.456;2023-04-01T04:58:54;21.08;;;12.35;;
50249;SDS011;36133;42.522;27.456;2023-04-01T05:01:20;25.67;;;13.00;;
50249;SDS011;36133;42.522;27.456;2023-04-01T05:03:46;26.95;;;14.60;;
50249;SDS011;36133;42.522;27.456;2023-04-01T05:06:12;28.80;;;12.38;;
50249;SDS011;36133;42.522;27.456;2023-04-01T05:08:39;23.77;;;13.27;;
50249;SDS011;36133;42.522;27.456;2023-04-01T05:11:15;22.10;;;12.98;;
50249;SDS011;36133;42.522;27.456;2023-04-01T05:13:43;25.83;;;14.05;;
50249;SDS011;36133;42.522;27.456;2023-04-01T05:16:10;29.13;;;14.70;;
50249;SDS011;36133;42.522;27.456;2023-04-01T05:18:40;29.23;;;15.23;;
50249;SDS011;36133;42.522;27.456;2023-04-01T05:21:07;30.40;;;13.90;;
50249;SDS011;36133;42.522;27.456;2023-04-01T05:23:33;22.88;;;14.45;;
50249;SDS011;36133;42.522;27.456;2023-04-01T05:26:03;35.28;;;15.40;;
50249;SDS011;36133;42.522;27.456;2023-04-01T05:28:29;25.17;;;15.25;;
50249;SDS011;36133;42.522;27.456;2023-04-01T05:30:57;30.65;;;15.73;;
50249;SDS011;36133;42.522;27.456;2023-04-01T05:33:25;30.77;;;18.17;;
50249;SDS011;36133;42.522;27.456;2023-04-01T05:35:50;33.75;;;17.25;;
50249;SDS011;36133;42.522;27.456;2023-04-01T05:38:16;26.15;;;15.25;;
50249;SDS011;36133;42.522;27.456;2023-04-01T05:40:41;26.67;;;14.80;;
50249;SDS011;36133;42.522;27.456;2023-04-01T05:43:10;23.27;;;13.10;;
50249;SDS011;36133;42.522;27.456;2023-04-01T05:45:36;25.02;;;13.30;;
50249;SDS011;36133;42.522;27.456;2023-04-01T05:48:02;24.42;;;13.05;;
50249;SDS011;36133;42.522;27.456;2023-04-01T05:50:31;22.38;;;12.82;;
50249;SDS011;36133;42.522;27.456;2023-04-01T05:52:57;26.85;;;14.07;;
50249;SDS011;36133;42.522;27.456;2023-04-01T05:55:25;24.02;;;12.63;;
50249;SDS011;36133;42.522;27.456;2023-04-01T05:57:51;19.05;;;12.65;;
50249;SDS011;36133;42.522;27.456;2023-04-01T06:00:17;30.23;;;13.63;;
50249;SDS011;36133;42.522;27.456;2023-04-01T06:02:44;30.33;;;13.68;;
50249;SDS011;36133;42.522;27.456;2023-04-01T06:05:21;22.75;;;12.55;;
50249;SDS011;36133;42.522;27.456;2023-04-01T06:07:55;17.58;;;12.60;;
50249;SDS011;36133;42.522;27.456;2023-04-01T06:10:28;28.50;;;12.80;;
50249;SDS011;36133;42.522;27.456;2023-04-01T06:18:41;28.98;;;18.08;;
50249;SDS011;36133;42.522;27.456;2023-04-01T06:34:26;26.48;;;16.17;;
50249;SDS011;36133;42.522;27.456;2023-04-01T06:47:42;26.48;;;13.48;;
50249;SDS011;36133;42.522;27.456;2023-04-01T06:53:15;24.60;;;13.38;;
50249;SDS011;36133;42.522;27.456;2023-04-01T06:55:46;25.75;;;13.18;;
50249;SDS011;36133;42.522;27.456;2023-04-01T06:58:21;31.25;;;14.43;;
50249;SDS011;36133;42.522;27.456;2023-04-01T07:00:54;22.25;;;11.95;;
50249;SDS011;36133;42.522;27.456;2023-04-01T07:03:36;30.90;;;12.23;;
50249;SDS011;36133;42.522;27.456;2023-04-01T07:06:14;31.13;;;13.02;;
50249;SDS011;36133;42.522;27.456;2023-04-01T07:08:48;25.55;;;12.27;;
50249;SDS011;36133;42.522;27.456;2023-04-01T07:11:31;24.55;;;12.25;;
50249;SDS011;36133;42.522;27.456;2023-04-01T07:14:10;22.58;;;12.95;;
50249;SDS011;36133;42.522;27.456;2023-04-01T07:17:08;23.10;;;12.00;;
50249;SDS011;36133;42.522;27.456;2023-04-01T07:22:54;21.15;;;11.88;;
50249;SDS011;36133;42.522;27.456;2023-04-01T07:25:46;24.27;;;15.27;;
50249;SDS011;36133;42.522;27.456;2023-04-01T07:28:26;22.00;;;11.82;;
50249;SDS011;36133;42.522;27.456;2023-04-01T07:31:05;24.17;;;13.32;;
50249;SDS011;36133;42.522;27.456;2023-04-01T07:34:05;21.13;;;11.65;;
50249;SDS011;36133;42.522;27.456;2023-04-01T08:00:30;18.40;;;5.85;;
50249;SDS011;36133;42.522;27.456;2023-04-01T08:06:31;17.42;;;5.72;;
50249;SDS011;36133;42.522;27.456;2023-04-01T08:26:45;15.43;;;6.07;;
50249;SDS011;36133;42.522;27.456;2023-04-01T08:29:18;12.00;;;5.10;;
50249;SDS011;36133;42.522;27.456;2023-04-01T08:31:58;20.45;;;6.30;;
50249;SDS011;36133;42.522;27.456;2023-04-01T08:34:42;21.80;;;7.13;;
50249;SDS011;36133;42.522;27.456;2023-04-01T08:57:04;11.65;;;4.85;;
50249;SDS011;36133;42.522;27.456;2023-04-01T09:05:36;19.05;;;6.25;;
50249;SDS011;36133;42.522;27.456;2023-04-01T09:11:10;13.90;;;5.63;;
50249;SDS011;36133;42.522;27.456;2023-04-01T09:31:09;16.52;;;5.43;;
50249;SDS011;36133;42.522;27.456;2023-04-01T09:42:51;20.27;;;5.13;;
50249;SDS011;36133;42.522;27.456;2023-04-01T09:45:34;11.60;;;4.03;;
50249;SDS011;36133;42.522;27.456;2023-04-01T10:20:36;18.00;;;4.60;;
50249;SDS011;36133;42.522;27.456;2023-04-01T10:23:12;9.80;;;3.70;;
50249;SDS011;36133;42.522;27.456;2023-04-01T10:35:44;16.10;;;4.88;;
50249;SDS011;36133;42.522;27.456;2023-04-01T10:57:58;12.43;;;3.92;;
50249;SDS011;36133;42.522;27.456;2023-04-01T11:00:52;22.63;;;4.47;;
50249;SDS011;36133;42.522;27.456;2023-04-01T11:06:04;17.58;;;4.07;;
50249;SDS011;36133;42.522;27.456;2023-04-01T11:17:37;18.38;;;4.20;;
50249;SDS011;36133;42.522;27.456;2023-04-01T11:26:00;15.15;;;3.67;;
50249;SDS011;36133;42.522;27.456;2023-04-01T11:56:27;15.27;;;4.13;;
50249;SDS011;36133;42.522;27.456;2023-04-01T12:02:51;19.38;;;4.60;;
50249;SDS011;36133;42.522;27.456;2023-04-01T12:06:29;12.88;;;3.88;;
50249;SDS011;36133;42.522;27.456;2023-04-01T12:13:57;16.92;;;4.68;;
50249;SDS011;36133;42.522;27.456;2023-04-01T12:19:32;17.50;;;4.57;;
50249;SDS011;36133;42.522;27.456;2023-04-01T12:33:26;18.75;;;4.97;;
50249;SDS011;36133;42.522;27.456;2023-04-01T12:53:12;17.67;;;4.90;;
50249;SDS011;36133;42.522;27.456;2023-04-01T12:56:54;15.25;;;4.00;;
50249;SDS011;36133;42.522;27.456;2023-04-01T13:21:13;19.98;;;4.15;;
50249;SDS011;36133;42.522;27.456;2023-04-01T13:26:22;16.52;;;4.55;;
50249;SDS011;36133;42.522;27.456;2023-04-01T13:34:38;26.95;;;4.75;;
50249;SDS011;36133;42.522;27.456;2023-04-01T13:42:31;24.48;;;5.07;;
50249;SDS011;36133;42.522;27.456;2023-04-01T13:45:09;20.75;;;5.30;;
50249;SDS011;36133;42.522;27.456;2023-04-01T13:50:37;25.02;;;5.05;;
50249;SDS011;36133;42.522;27.456;2023-04-01T14:01:35;23.27;;;5.30;;
50249;SDS011;36133;42.522;27.456;2023-04-01T14:21:57;23.88;;;5.00;;
50249;SDS011;36133;42.522;27.456;2023-04-01T14:34:00;15.15;;;4.07;;
50249;SDS011;36133;42.522;27.456;2023-04-01T14:45:45;24.33;;;4.57;;
50249;SDS011;36133;42.522;27.456;2023-04-01T14:54:30;23.05;;;4.30;;
50249;SDS011;36133;42.522;27.456;2023-04-01T14:57:15;25.10;;;4.38;;
50249;SDS011;36133;42.522;27.456;2023-04-01T15:00:09;20.27;;;4.78;;
50249;SDS011;36133;42.522;27.456;2023-04-01T15:15:02;17.88;;;3.72;;
50249;SDS011;36133;42.522;27.456;2023-04-01T15:28:24;17.25;;;3.70;;
50249;SDS011;36133;42.522;27.456;2023-04-01T15:31:21;21.98;;;5.32;;
50249;SDS011;36133;42.522;27.456;2023-04-01T15:36:59;26.67;;;5.57;;
50249;SDS011;36133;42.522;27.456;2023-04-01T15:47:55;21.92;;;4.43;;
50249;SDS011;36133;42.522;27.456;2023-04-01T16:05:04;20.40;;;3.85;;
50249;SDS011;36133;42.522;27.456;2023-04-01T16:08:09;14.65;;;3.50;;
50249;SDS011;36133;42.522;27.456;2023-04-01T16:14:28;28.10;;;4.25;;
50249;SDS011;36133;42.522;27.456;2023-04-01T16:22:38;21.17;;;3.80;;
50249;SDS011;36133;42.522;27.456;2023-04-01T16:27:58;20.10;;;4.05;;
50249;SDS011;36133;42.522;27.456;2023-04-01T16:33:44;21.52;;;3.88;;
50249;SDS011;36133;42.522;27.456;2023-04-01T16:36:24;16.55;;;3.30;;
50249;SDS011;36133;42.522;27.456;2023-04-01T16:41:53;24.10;;;4.50;;
50249;SDS011;36133;42.522;27.456;2023-04-01T16:44:31;20.13;;;5.20;;
50249;SDS011;36133;42.522;27.456;2023-04-01T16:47:14;20.65;;;4.43;;
50249;SDS011;36133;42.522;27.456;2023-04-01T16:52:53;24.80;;;4.80;;
50249;SDS011;36133;42.522;27.456;2023-04-01T16:55:24;20.45;;;4.40;;
50249;SDS011;36133;42.522;27.456;2023-04-01T16:58:59;30.80;;;5.65;;
50249;SDS011;36133;42.522;27.456;2023-04-01T17:01:08;20.98;;;4.55;;
50249;SDS011;36133;42.522;27.456;2023-04-01T17:03:57;35.08;;;5.63;;
50249;SDS011;36133;42.522;27.456;2023-04-01T17:06:38;15.75;;;3.58;;
50249;SDS011;36133;42.522;27.456;2023-04-01T17:09:25;28.75;;;5.18;;
50249;SDS011;36133;42.522;27.456;2023-04-01T17:17:19;18.48;;;4.80;;
50249;SDS011;36133;42.522;27.456;2023-04-01T17:28:31;27.73;;;5.43;;
50249;SDS011;36133;42.522;27.456;2023-04-01T17:53:23;25.40;;;5.57;;
50249;SDS011;36133;42.522;27.456;2023-04-01T17:56:17;22.63;;;5.00;;
50249;SDS011;36133;42.522;27.456;2023-04-01T17:58:50;33.15;;;5.85;;
50249;SDS011;36133;42.522;27.456;2023-04-01T18:22:33;25.08;;;6.53;;
50249;SDS011;36133;42.522;27.456;2023-04-01T18:25:14;25.40;;;6.45;;
50249;SDS011;36133;42.522;27.456;2023-04-01T18:27:52;23.70;;;5.88;;
50249;SDS011;36133;42.522;27.456;2023-04-01T18:30:38;26.52;;;6.28;;
50249;SDS011;36133;42.522;27.456;2023-04-01T18:33:19;31.63;;;6.18;;
50249;SDS011;36133;42.522;27.456;2023-04-01T18:35:54;30.35;;;5.78;;
50249;SDS011;36133;42.522;27.456;2023-04-01T18:57:26;17.75;;;7.43;;
50249;SDS011;36133;42.522;27.456;2023-04-01T19:00:16;21.60;;;8.15;;
50249;SDS011;36133;42.522;27.456;2023-04-01T19:02:55;25.45;;;10.43;;
50249;SDS011;36133;42.522;27.456;2023-04-01T19:05:42;31.00;;;10.40;;
50249;SDS011;36133;42.522;27.456;2023-04-01T19:14:27;11.40;;;4.47;;
50249;SDS011;36133;42.522;27.456;2023-04-01T19:17:16;9.73;;;4.35;;
50249;SDS011;36133;42.522;27.456;2023-04-01T19:20:12;11.52;;;5.07;;
50249;SDS011;36133;42.522;27.456;2023-04-01T19:34:26;15.68;;;9.13;;
50249;SDS011;36133;42.522;27.456;2023-04-01T19:36:59;17.67;;;7.53;;
50249;SDS011;36133;42.522;27.456;2023-04-01T19:39:55;11.63;;;5.25;;
50249;SDS011;36133;42.522;27.456;2023-04-01T19:42:47;10.93;;;5.50;;
50249;SDS011;36133;42.522;27.456;2023-04-01T19:45:37;12.57;;;5.03;;
50249;SDS011;36133;42.522;27.456;2023-04-01T19:59:52;7.85;;;4.35;;
50249;SDS011;36133;42.522;27.456;2023-04-01T20:05:16;10.43;;;4.68;;
50249;SDS011;36133;42.522;27.456;2023-04-01T20:07:47;17.60;;;9.27;;
50249;SDS011;36133;42.522;27.456;2023-04-01T20:12:57;16.65;;;9.13;;
50249;SDS011;36133;42.522;27.456;2023-04-01T20:15:44;5.70;;;3.88;;
50249;SDS011;36133;42.522;27.456;2023-04-01T20:21:56;5.03;;;3.75;;
50249;SDS011;36133;42.522;27.456;2023-04-01T20:23:56;4.57;;;3.17;;
50249;SDS011;36133;42.522;27.456;2023-04-01T20:26:33;3.17;;;2.20;;
50249;SDS011;36133;42.522;27.456;2023-04-01T20:29:24;4.65;;;1.48;;
50249;SDS011;36133;42.522;27.456;2023-04-01T20:40:45;2.63;;;1.70;;
50249;SDS011;36133;42.522;27.456;2023-04-01T20:46:16;9.27;;;3.05;;
50249;SDS011;36133;42.522;27.456;2023-04-01T20:51:46;4.65;;;1.88;;
50249;SDS011;36133;42.522;27.456;2023-04-01T20:57:11;1.30;;;1.08;;
50249;SDS011;36133;42.522;27.456;2023-04-01T21:16:10;2.10;;;1.50;;
50249;SDS011;36133;42.522;27.456;2023-04-01T21:29:24;4.97;;;2.55;;
50249;SDS011;36133;42.522;27.456;2023-04-01T21:32:06;5.50;;;2.80;;
50249;SDS011;36133;42.522;27.456;2023-04-01T21:37:03;12.20;;;5.10;;
50249;SDS011;36133;42.522;27.456;2023-04-01T21:42:50;9.95;;;5.75;;
50249;SDS011;36133;42.522;27.456;2023-04-01T22:04:56;6.47;;;3.75;;
50249;SDS011;36133;42.522;27.456;2023-04-01T22:10:22;8.23;;;4.22;;
50249;SDS011;36133;42.522;27.456;2023-04-01T22:16:08;29.15;;;19.10;;
50249;SDS011;36133;42.522;27.456;2023-04-01T22:18:40;34.28;;;24.35;;
50249;SDS011;36133;42.522;27.456;2023-04-01T22:24:13;37.63;;;24.48;;
50249;SDS011;36133;42.522;27.456;2023-04-01T22:29:28;23.42;;;13.57;;
50249;SDS011;36133;42.522;27.456;2023-04-01T22:32:18;27.73;;;17.17;;
50249;SDS011;36133;42.522;27.456;2023-04-01T22:34:53;27.27;;;14.88;;
50249;SDS011;36133;42.522;27.456;2023-04-01T22:40:17;27.80;;;15.13;;
50249;SDS011;36133;42.522;27.456;2023-04-01T22:42:47;29.10;;;17.17;;
50249;SDS011;36133;42.522;27.456;2023-04-01T22:54:10;20.35;;;11.60;;
50249;SDS011;36133;42.522;27.456;2023-04-01T22:56:45;14.43;;;10.40;;
50249;SDS011;36133;42.522;27.456;2023-04-01T23:01:57;15.48;;;9.07;;
50249;SDS011;36133;42.522;27.456;2023-04-01T23:04:33;15.75;;;8.93;;
50249;SDS011;36133;42.522;27.456;2023-04-01T23:07:07;13.32;;;8.48;;
50249;SDS011;36133;42.522;27.456;2023-04-01T23:10:02;13.48;;;8.48;;
50249;SDS011;36133;42.522;27.456;2023-04-01T23:12:37;12.57;;;7.70;;
50249;SDS011;36133;42.522;27.456;2023-04-01T23:15:05;10.73;;;6.90;;
50249;SDS011;36133;42.522;27.456;2023-04-01T23:17:52;10.68;;;6.70;;
50249;SDS011;36133;42.522;27.456;2023-04-01T23:29:14;7.55;;;5.28;;
50249;SDS011;36133;42.522;27.456;2023-04-01T23:31:46;19.63;;;12.35;;
50249;SDS011;36133;42.522;27.456;2023-04-01T23:36:40;11.65;;;5.53;;
50249;SDS011;36133;42.522;27.456;2023-04-01T23:42:00;12.52;;;7.18;;
50249;SDS011;36133;42.522;27.456;2023-04-01T23:44:35;13.65;;;9.80;;
50249;SDS011;36133;42.522;27.456;2023-04-01T23:47:02;13.73;;;10.38;;
50249;SDS011;36133;42.522;27.456;2023-04-01T23:49:33;18.08;;;12.50;;
50249;SDS011;36133;42.522;27.456;2023-04-01T23:52:04;12.82;;;9.00;;
50249;SDS011;36133;42.522;27.456;2023-04-01T23:57:14;13.32;;;7.47;;
50249;SDS011;36133;42.522;27.456;2023-04-01T23:59:59;7.95;;;5.63;;
